PWSweather.com
Personal Weather Stations
Station Observations
MADWEATHER
MadeiraPT

MadeiraPT

Lat: 32.735, Lon: -17.194

Elevation: 1063

Station Type: Davis VantagePro2

Latest ConditionsUpdated 12:00:00 PM GMT Sunday, Jan 20, 2019
Currently Today's Max Today's Min Today's Average
Temperature 62.5°F16.9°C 64.5°F18.1°C 57.4°F14.1°C 59.1°F15.1°C
Dew Point 49.7°F9.8°C 54.3°F12.4°C 45.9°F7.7°C 50.2°F10.1°C
Winds 3.3 mph SSE5.3 kmh SSE 12.1 mph -19.5 kmh - - 4.8 mph 7.7 kmh
Wind Gusts 5.0 mph8.0 kmh 19.0 mph30.6 kmh - -
Humidity 63% 83% 58% 73%
Pressure 30.32 in1026.8 mb 30.34 in1027.4 mb 30.24 in1024.0 mb -
Precipitation - 0.16 in4.1 mm - -
Hour Temp Dew Point Humidity Winds Wind Gusts Pressure Precip Precip Rate Daily Precip Total
12:00 PM 62.5°F16.9°C 49.7°F9.8°C 63% 3.3 mph SSE5.3 kmh SSE 5.0 mph8.0 kmh 30.32 in1026.8 mb - 0.00 in0.0 mm 0.16 in4.1 mm
11:50 AM 62.7°F17.1°C 49.9°F9.9°C 63% 5.5 mph WSW8.9 kmh WSW 7.0 mph11.3 kmh 30.32 in1026.8 mb - 0.00 in0.0 mm 0.16 in4.1 mm
11:40 AM 64.5°F18.1°C 49.8°F9.9°C 59% 1.4 mph NE2.3 kmh NE 4.0 mph6.4 kmh 30.32 in1026.8 mb - 0.00 in0.0 mm 0.16 in4.1 mm
11:30 AM 64.3°F17.9°C 51.0°F10.6°C 62% 0.2 mph ESE0.3 kmh ESE 1.0 mph1.6 kmh 30.32 in1026.8 mb - 0.00 in0.0 mm 0.16 in4.1 mm
11:20 AM 63.2°F17.3°C 49.5°F9.7°C 61% 2.0 mph E3.2 kmh E 5.0 mph8.0 kmh 30.31 in1026.4 mb - 0.00 in0.0 mm 0.16 in4.1 mm
11:10 AM 62.2°F16.8°C 48.1°F8.9°C 60% 4.5 mph ESE7.2 kmh ESE 6.0 mph9.7 kmh 30.31 in1026.4 mb - 0.00 in0.0 mm 0.16 in4.1 mm
11:00 AM 61.5°F16.4°C 47.5°F8.6°C 60% 5.6 mph E9.0 kmh E 10.0 mph16.1 kmh 30.31 in1026.4 mb - 0.00 in0.0 mm 0.16 in4.1 mm
10:50 AM 60.8°F16.0°C 45.9°F7.7°C 58% 7.9 mph ESE12.7 kmh ESE 12.0 mph19.3 kmh 30.31 in1026.4 mb - 0.00 in0.0 mm 0.16 in4.1 mm
10:40 AM 60.6°F15.9°C 46.6°F8.1°C 60% 7.3 mph ENE11.7 kmh ENE 9.0 mph14.5 kmh 30.30 in1026.1 mb - 0.00 in0.0 mm 0.16 in4.1 mm
10:30 AM 60.0°F15.6°C 46.9°F8.3°C 62% 8.7 mph E14.0 kmh E 12.0 mph19.3 kmh 30.29 in1025.7 mb - 0.00 in0.0 mm 0.16 in4.1 mm
10:20 AM 59.7°F15.4°C 47.5°F8.6°C 64% 10.1 mph E16.3 kmh E 14.0 mph22.5 kmh 30.29 in1025.7 mb - 0.00 in0.0 mm 0.16 in4.1 mm
10:10 AM 59.5°F15.3°C 47.8°F8.8°C 65% 12.1 mph E19.5 kmh E 17.0 mph27.4 kmh 30.28 in1025.4 mb - 0.01 in0.3 mm 0.16 in4.1 mm
10:00 AM 60.2°F15.7°C 46.7°F8.2°C 61% 3.0 mph SSE4.8 kmh SSE 10.0 mph16.1 kmh 30.28 in1025.4 mb - 0.00 in0.0 mm 0.15 in3.8 mm
09:50 AM 59.1°F15.1°C 46.5°F8.1°C 63% 4.7 mph S7.6 kmh S 10.0 mph16.1 kmh 30.28 in1025.4 mb - 0.00 in0.0 mm 0.15 in3.8 mm
09:40 AM 58.5°F14.7°C 46.0°F7.8°C 63% 5.8 mph SW9.3 kmh SW 6.0 mph9.7 kmh 30.28 in1025.4 mb - 0.00 in0.0 mm 0.15 in3.8 mm
09:30 AM 58.4°F14.7°C 46.7°F8.2°C 65% 6.9 mph S11.1 kmh S 13.0 mph20.9 kmh 30.27 in1025.1 mb - 0.00 in0.0 mm 0.15 in3.8 mm
09:20 AM 58.1°F14.5°C 46.4°F8.0°C 65% 3.2 mph S5.1 kmh S 3.0 mph4.8 kmh 30.27 in1025.1 mb - 0.00 in0.0 mm 0.15 in3.8 mm
09:10 AM 58.4°F14.7°C 46.7°F8.2°C 65% 4.1 mph E6.6 kmh E 7.0 mph11.3 kmh 30.27 in1025.1 mb - 0.00 in0.0 mm 0.15 in3.8 mm
09:00 AM 57.9°F14.4°C 47.4°F8.6°C 68% 5.0 mph SW8.0 kmh SW 8.0 mph12.9 kmh 30.27 in1025.1 mb - 0.00 in0.0 mm 0.15 in3.8 mm
08:50 AM 57.6°F14.2°C 47.1°F8.4°C 68% 5.1 mph SW8.2 kmh SW 7.0 mph11.3 kmh 30.27 in1025.1 mb - 0.00 in0.0 mm 0.15 in3.8 mm
08:40 AM 57.5°F14.2°C 47.4°F8.6°C 69% 1.5 mph WSW2.4 kmh WSW 3.0 mph4.8 kmh 30.27 in1025.1 mb - 0.00 in0.0 mm 0.15 in3.8 mm
08:30 AM 57.8°F14.3°C 47.3°F8.5°C 68% 3.5 mph WSW5.6 kmh WSW 2.0 mph3.2 kmh 30.26 in1024.7 mb - 0.00 in0.0 mm 0.15 in3.8 mm
08:20 AM 57.6°F14.2°C 46.8°F8.2°C 67% 5.3 mph NE8.5 kmh NE 7.0 mph11.3 kmh 30.27 in1025.1 mb - 0.00 in0.0 mm 0.15 in3.8 mm
08:10 AM 57.6°F14.2°C 46.7°F8.2°C 67% 2.8 mph NE4.5 kmh NE 7.0 mph11.3 kmh 30.26 in1024.7 mb - 0.00 in0.0 mm 0.15 in3.8 mm
08:00 AM 57.7°F14.3°C 47.2°F8.4°C 68% 3.9 mph NE6.3 kmh NE 10.0 mph16.1 kmh 30.27 in1025.1 mb - 0.00 in0.0 mm 0.15 in3.8 mm
07:50 AM 57.8°F14.3°C 48.1°F8.9°C 70% 1.0 mph NE1.6 kmh NE 4.0 mph6.4 kmh 30.26 in1024.7 mb - 0.00 in0.0 mm 0.15 in3.8 mm
07:40 AM 57.4°F14.1°C 48.1°F8.9°C 71% 2.4 mph N3.9 kmh N 4.0 mph6.4 kmh 30.26 in1024.7 mb - 0.00 in0.0 mm 0.15 in3.8 mm
07:30 AM 57.4°F14.1°C 48.4°F9.1°C 72% 0.1 mph N0.2 kmh N -- 30.26 in1024.7 mb - 0.00 in0.0 mm 0.15 in3.8 mm
07:20 AM 57.5°F14.2°C 48.5°F9.2°C 72% 0.1 mph N0.2 kmh N 7.0 mph11.3 kmh 30.26 in1024.7 mb - 0.00 in0.0 mm 0.15 in3.8 mm
07:10 AM 57.8°F14.3°C 49.2°F9.6°C 73% 3.2 mph N5.1 kmh N 6.0 mph9.7 kmh 30.26 in1024.7 mb - 0.00 in0.0 mm 0.15 in3.8 mm
07:00 AM 58.1°F14.5°C 50.2°F10.1°C 75% Calm Calm -- 30.26 in1024.7 mb - 0.00 in0.0 mm 0.15 in3.8 mm
06:50 AM 58.4°F14.7°C 50.9°F10.5°C 76% 3.4 mph N5.5 kmh N 4.0 mph6.4 kmh 30.26 in1024.7 mb - 0.00 in0.0 mm 0.15 in3.8 mm
06:40 AM 58.7°F14.8°C 51.1°F10.6°C 76% 2.0 mph N3.2 kmh N 4.0 mph6.4 kmh 30.25 in1024.4 mb - 0.00 in0.0 mm 0.15 in3.8 mm
06:30 AM 58.6°F14.8°C 51.8°F11.0°C 78% 5.4 mph NNW8.7 kmh NNW 7.0 mph11.3 kmh 30.25 in1024.4 mb - 0.00 in0.0 mm 0.15 in3.8 mm
06:20 AM 58.4°F14.7°C 52.3°F11.3°C 80% 5.2 mph N8.4 kmh N 10.0 mph16.1 kmh 30.25 in1024.4 mb - 0.00 in0.0 mm 0.15 in3.8 mm
06:10 AM 58.6°F14.8°C 52.4°F11.3°C 80% 3.4 mph NNW5.5 kmh NNW 9.0 mph14.5 kmh 30.25 in1024.4 mb - 0.01 in0.3 mm 0.15 in3.8 mm
06:00 AM 58.9°F14.9°C 52.7°F11.5°C 80% 8.3 mph NNW13.4 kmh NNW 19.0 mph30.6 kmh 30.25 in1024.4 mb - 0.00 in0.0 mm 0.14 in3.6 mm
05:50 AM 59.1°F15.1°C 53.0°F11.7°C 80% 8.6 mph NW13.8 kmh NW 13.0 mph20.9 kmh 30.25 in1024.4 mb - 0.00 in0.0 mm 0.14 in3.6 mm
05:40 AM 59.2°F15.1°C 53.4°F11.9°C 81% 4.5 mph NW7.2 kmh NW 7.0 mph11.3 kmh 30.24 in1024.0 mb - 0.00 in0.0 mm 0.14 in3.6 mm
05:30 AM 59.3°F15.2°C 53.8°F12.1°C 82% 6.5 mph NW10.5 kmh NW 13.0 mph20.9 kmh 30.24 in1024.0 mb - 0.01 in0.3 mm 0.14 in3.6 mm
05:20 AM 59.6°F15.3°C 54.1°F12.3°C 82% 9.7 mph NW15.6 kmh NW 13.0 mph20.9 kmh 30.24 in1024.0 mb - 0.01 in0.3 mm 0.13 in3.3 mm
05:10 AM 59.4°F15.2°C 53.9°F12.2°C 82% 7.9 mph NW12.7 kmh NW 14.0 mph22.5 kmh 30.25 in1024.4 mb - 0.00 in0.0 mm 0.13 in3.3 mm
05:00 AM 59.4°F15.2°C 54.2°F12.3°C 83% 3.8 mph NW6.1 kmh NW 7.0 mph11.3 kmh 30.25 in1024.4 mb - 0.02 in0.5 mm 0.13 in3.3 mm
04:50 AM 59.4°F15.2°C 54.3°F12.4°C 83% 4.3 mph NW6.9 kmh NW 16.0 mph25.7 kmh 30.26 in1024.7 mb - 0.02 in0.5 mm 0.11 in2.8 mm
04:40 AM 59.4°F15.2°C 54.2°F12.3°C 83% 8.5 mph NW13.7 kmh NW 14.0 mph22.5 kmh 30.26 in1024.7 mb - 0.02 in0.5 mm 0.10 in2.5 mm
04:30 AM 59.3°F15.2°C 54.2°F12.3°C 83% 5.6 mph NW9.0 kmh NW 11.0 mph17.7 kmh 30.26 in1024.7 mb - 0.00 in0.0 mm 0.08 in2.0 mm
04:20 AM 59.5°F15.3°C 54.3°F12.4°C 83% 9.3 mph NW15.0 kmh NW 13.0 mph20.9 kmh 30.27 in1025.1 mb - 0.03 in0.8 mm 0.08 in2.0 mm
04:10 AM 59.4°F15.2°C 54.3°F12.4°C 83% 4.7 mph NW7.6 kmh NW 10.0 mph16.1 kmh 30.27 in1025.1 mb - 0.02 in0.5 mm 0.05 in1.3 mm
04:00 AM 59.3°F15.2°C 53.8°F12.1°C 82% 4.2 mph NW6.8 kmh NW 8.0 mph12.9 kmh 30.27 in1025.1 mb - 0.01 in0.3 mm 0.02 in0.5 mm
03:50 AM 59.2°F15.1°C 53.7°F12.1°C 82% 4.9 mph NW7.9 kmh NW 11.0 mph17.7 kmh 30.28 in1025.4 mb - 0.00 in0.0 mm 0.02 in0.5 mm
03:40 AM 59.0°F15.0°C 53.8°F12.1°C 83% 10.2 mph NW16.4 kmh NW 11.0 mph17.7 kmh 30.28 in1025.4 mb - 0.01 in0.3 mm 0.02 in0.5 mm
03:30 AM 58.8°F14.9°C 53.3°F11.8°C 82% 7.8 mph NW12.6 kmh NW 12.0 mph19.3 kmh 30.28 in1025.4 mb - 0.00 in0.0 mm 0.01 in0.3 mm
03:20 AM 58.6°F14.8°C 53.2°F11.8°C 82% 9.1 mph NW14.6 kmh NW 13.0 mph20.9 kmh 30.28 in1025.4 mb - 0.00 in0.0 mm 0.01 in0.3 mm
03:10 AM 58.6°F14.8°C 52.8°F11.6°C 81% 5.7 mph NW9.2 kmh NW 7.0 mph11.3 kmh 30.29 in1025.7 mb - 0.00 in0.0 mm 0.01 in0.3 mm
03:00 AM 58.4°F14.7°C 52.3°F11.3°C 80% 4.7 mph NW7.6 kmh NW 9.0 mph14.5 kmh 30.29 in1025.7 mb - 0.00 in0.0 mm 0.01 in0.3 mm
02:50 AM 58.5°F14.7°C 52.0°F11.1°C 79% 2.5 mph NW4.0 kmh NW 5.0 mph8.0 kmh 30.29 in1025.7 mb - 0.01 in0.3 mm 0.01 in0.3 mm
02:40 AM 58.6°F14.8°C 51.8°F11.0°C 78% 4.7 mph NW7.6 kmh NW 9.0 mph14.5 kmh 30.30 in1026.1 mb - 0.00 in0.0 mm 0.00 in0.0 mm
02:30 AM 59.1°F15.1°C 51.8°F11.0°C 77% 6.7 mph NW10.8 kmh NW 12.0 mph19.3 kmh 30.30 in1026.1 mb - 0.00 in0.0 mm 0.00 in0.0 mm
02:20 AM 59.2°F15.1°C 51.3°F10.7°C 75% 5.6 mph NW9.0 kmh NW 8.0 mph12.9 kmh 30.30 in1026.1 mb - 0.00 in0.0 mm 0.00 in0.0 mm
02:10 AM 59.2°F15.1°C 50.9°F10.5°C 74% 6.5 mph NW10.5 kmh NW 10.0 mph16.1 kmh 30.30 in1026.1 mb - 0.00 in0.0 mm 0.00 in0.0 mm
02:00 AM 59.3°F15.2°C 50.6°F10.3°C 73% 4.3 mph NW6.9 kmh NW 5.0 mph8.0 kmh 30.30 in1026.1 mb - 0.00 in0.0 mm 0.00 in0.0 mm
01:50 AM 59.4°F15.2°C 50.8°F10.4°C 73% 6.8 mph NW10.9 kmh NW 13.0 mph20.9 kmh 30.31 in1026.4 mb - 0.00 in0.0 mm 0.00 in0.0 mm
01:40 AM 58.9°F14.9°C 50.3°F10.2°C 73% 3.9 mph NW6.3 kmh NW 7.0 mph11.3 kmh 30.31 in1026.4 mb - 0.00 in0.0 mm 0.00 in0.0 mm
01:30 AM 58.4°F14.7°C 49.8°F9.9°C 73% 5.0 mph NW8.0 kmh NW 7.0 mph11.3 kmh 30.31 in1026.4 mb - 0.00 in0.0 mm 0.00 in0.0 mm
01:20 AM 57.7°F14.3°C 49.9°F9.9°C 75% 2.3 mph NW3.7 kmh NW 5.0 mph8.0 kmh 30.32 in1026.8 mb - 0.00 in0.0 mm 0.00 in0.0 mm
01:10 AM 57.6°F14.2°C 49.7°F9.8°C 75% 2.3 mph NW3.7 kmh NW 4.0 mph6.4 kmh 30.32 in1026.8 mb - 0.00 in0.0 mm 0.00 in0.0 mm
01:00 AM 57.8°F14.3°C 49.9°F9.9°C 75% 0.3 mph NW0.5 kmh NW 1.0 mph1.6 kmh 30.32 in1026.8 mb - 0.00 in0.0 mm 0.00 in0.0 mm
12:50 AM 58.0°F14.4°C 50.1°F10.1°C 75% 2.8 mph NW4.5 kmh NW 5.0 mph8.0 kmh 30.33 in1027.1 mb - 0.00 in0.0 mm 0.00 in0.0 mm
12:40 AM 58.0°F14.4°C 50.1°F10.1°C 75% 2.3 mph NW3.7 kmh NW 4.0 mph6.4 kmh 30.33 in1027.1 mb - 0.00 in0.0 mm 0.00 in0.0 mm
12:30 AM 58.4°F14.7°C 50.5°F10.3°C 75% 4.3 mph NW6.9 kmh NW 6.0 mph9.7 kmh 30.33 in1027.1 mb - 0.00 in0.0 mm 0.00 in0.0 mm
12:20 AM 58.6°F14.8°C 49.6°F9.8°C 72% 3.6 mph NW5.8 kmh NW 7.0 mph11.3 kmh 30.33 in1027.1 mb - 0.00 in0.0 mm 0.00 in0.0 mm
12:10 AM 58.6°F14.8°C 49.3°F9.6°C 71% 3.6 mph NW5.8 kmh NW 6.0 mph9.7 kmh 30.33 in1027.1 mb - 0.00 in0.0 mm 0.00 in0.0 mm
12:00 AM 58.6°F14.8°C 48.9°F9.4°C 70% 2.9 mph NW4.7 kmh NW 5.0 mph8.0 kmh 30.34 in1027.4 mb - 0.00 in0.0 mm 0.00 in0.0 mm